Airfield :







YOU CAN JOIN US ON...

 
LOGIN :

Register | Disclaimer

   EN    FR    IT 

 









Legend :    VFR   Marginal VFR   IFR   Intensive IFR   Very Intensive IFR
Visi :
Ceiling :
>= 8 km
>= 3000ft
5 to 8 km
1000 to 3000 ft
1500m to 5 km
500 to 1000 ft
800 to 1500m
200 to 500 ft
< 800m
< 200 ft
Symbols :   Thunderstorms  Fog  Heavy snow  Heavy precipitations  Wind > 20 kt






- Airport Elevation : 232 ft
- IATA code : YQM


CYQM - Greater Moncton International

CURRENT METAR :
  • 041500Z 03016G23KT 6SM -SHSN BKN007 OVC014 00/M03 A3008 RMK SF5SC3 SLP192

EXPIRED METARs :
  • 041400Z 02012KT 5SM -SHSN OVC009 M00/M02 A3008 RMK SF8 SLP192
  • 041300Z 01014KT 6SM -SHSN OVC005 M01/M02 A3008 RMK SF8 SLP190

TAF TAF CYQM
Valid from the 04 at 12:00 until the 05 at 12:00 UTC


041138Z 0412/0512 01015KT 2SM -SN BR OVC003
TEMPO 0412/0415 6SM -SN OVC008
FM041500 02012KT P6SM -SN OVC008
TEMPO 0415/0419 P6SM NSW OVC012
PROB30 0415/0419 2SM -FZDZ BR
FM041900 01010KT P6SM -SN OVC012
FM050800 VRB03KT P6SM BKN007 RMK NXT FCST BY 041800Z



MET'MAP, your aeronautical weather chart ! - Copyright ORBIFLY December 2007 - Disclaimer

ORBIFLY MET'MAP TEAM :

Programming & Development : Alexandra Zaïnal
Concept & original design : Baudouin d'Aumeries
Assistance for programming : Marc-Olivier Méhu
Technical & hardware support : Manuel Goepfert

Contact : metmap@orbifly.com




SOURCES & CREDITS :

   NOAA